Time;durP1;ratioP1;P1;durP2;ratioP2;P2;SDS_P1;SDS_P2;PMS_P1;PMS_P2;Temp;Humidity;BMP_temperature;BMP_pressure;BME280_temperature;BME280_humidity;BME280_pressure;Samples;Min_cycle;Max_cycle;Signal;HPM_P1;HPM_P2
2023/07/03 00:00:18;;;;;;;6.22;2.38;;;;;;;16.58;84.43;99964.75;5157907;28;20037;-71
2023/07/03 00:02:52;;;;;;;7.25;2.83;;;;;;;16.50;84.86;99967.91;5161137;28;20036;-71
2023/07/03 00:05:23;;;;;;;7.25;2.95;;;;;;;16.56;85.99;99959.56;5183924;28;20122;-73
2023/07/03 00:07:54;;;;;;;7.13;2.60;;;;;;;16.49;86.39;99958.31;5164607;28;20045;-72
2023/07/03 00:10:24;;;;;;;7.63;2.92;;;;;;;16.41;86.85;99962.44;5168725;28;20021;-73
2023/07/03 00:12:54;;;;;;;6.68;2.65;;;;;;;16.50;87.61;99956.50;5164446;28;20113;-72
2023/07/03 00:15:25;;;;;;;7.28;2.80;;;;;;;16.54;88.07;99958.00;5164464;28;20037;-73
2023/07/03 00:17:55;;;;;;;7.65;2.97;;;;;;;16.44;88.92;99956.94;5164721;28;20030;-73
2023/07/03 00:20:27;;;;;;;9.00;3.47;;;;;;;16.41;89.10;99958.00;5160997;28;20026;-73
2023/07/03 00:22:58;;;;;;;8.05;2.70;;;;;;;16.50;88.39;99959.16;5162388;28;20040;-72
2023/07/03 00:25:31;;;;;;;10.00;3.08;;;;;;;16.58;86.87;99955.03;5167388;28;20021;-72
2023/07/03 00:28:01;;;;;;;8.18;2.90;;;;;;;16.59;87.57;99969.91;5140930;28;20046;-73
2023/07/03 00:30:32;;;;;;;8.52;2.65;;;;;;;16.72;87.87;99967.28;5159164;28;20037;-71
2023/07/03 00:33:02;;;;;;;7.70;2.90;;;;;;;16.56;86.30;99959.56;5163050;28;20038;-73
2023/07/03 00:35:32;;;;;;;7.22;2.78;;;;;;;16.53;86.00;99956.31;5162435;28;20037;-73
2023/07/03 00:38:03;;;;;;;6.95;3.10;;;;;;;16.62;86.33;99963.59;5164672;28;20045;-72
2023/07/03 00:40:33;;;;;;;8.15;2.53;;;;;;;16.70;86.57;99959.47;5191135;23;20404;-71
2023/07/03 00:43:04;;;;;;;7.30;2.88;;;;;;;16.60;84.60;99960.22;5164027;28;20021;-72
2023/07/03 00:45:36;;;;;;;7.32;2.55;;;;;;;16.67;85.78;99953.53;5167447;28;20041;-73
2023/07/03 00:48:06;;;;;;;9.18;3.03;;;;;;;16.65;84.58;99958.09;5182812;28;20049;-73
2023/07/03 00:50:37;;;;;;;8.30;2.78;;;;;;;16.77;86.75;99950.19;5172480;28;20021;-72
2023/07/03 00:53:07;;;;;;;10.30;3.08;;;;;;;16.80;86.19;99945.50;5171187;28;20087;-72
2023/07/03 00:55:37;;;;;;;8.77;3.00;;;;;;;16.60;87.01;99952.28;5159605;28;20030;-73
2023/07/03 00:58:08;;;;;;;6.65;2.97;;;;;;;16.76;87.19;99942.34;5173019;28;20941;-72
2023/07/03 01:00:46;;;;;;;8.75;2.67;;;;;;;16.65;87.19;99944.88;5166337;28;20095;-72
2023/07/03 01:03:26;;;;;;;7.75;3.10;;;;;;;16.47;88.47;99944.41;5164506;28;20034;-72
2023/07/03 01:05:57;;;;;;;9.13;3.08;;;;;;;16.47;89.50;99944.41;5162103;28;20508;-70
2023/07/03 01:08:27;;;;;;;8.00;2.85;;;;;;;16.40;90.04;99945.75;5167411;28;20038;-72
2023/07/03 01:10:58;;;;;;;7.63;2.92;;;;;;;16.33;91.12;99941.84;5169460;28;20057;-70
2023/07/03 01:13:30;;;;;;;9.60;3.08;;;;;;;16.44;91.23;99946.41;5158450;28;20054;-72
2023/07/03 01:16:05;;;;;;;8.52;2.75;;;;;;;16.35;92.71;99942.59;5158141;28;20309;-72
2023/07/03 01:18:36;;;;;;;9.85;3.40;;;;;;;16.12;92.72;99940.69;5158890;28;20037;-72
2023/07/03 01:21:15;;;;;;;8.48;3.10;;;;;;;16.02;95.31;99936.13;5156841;28;20030;-72
2023/07/03 01:23:53;;;;;;;7.22;3.00;;;;;;;16.00;96.16;99936.22;5173625;28;20391;-72
2023/07/03 01:26:26;;;;;;;10.55;3.38;;;;;;;15.96;96.55;99945.28;5170717;28;20026;-72
2023/07/03 01:28:59;;;;;;;9.70;3.22;;;;;;;15.92;96.00;99942.97;5159858;28;20134;-73
2023/07/03 01:31:33;;;;;;;8.48;3.30;;;;;;;15.99;95.18;99939.81;5170841;28;20045;-73
2023/07/03 01:34:05;;;;;;;8.50;3.22;;;;;;;16.09;95.46;99943.53;5159299;28;20037;-73
2023/07/03 01:36:37;;;;;;;9.10;3.45;;;;;;;16.09;95.33;99940.88;5145114;28;20180;-72
2023/07/03 01:39:08;;;;;;;8.80;2.80;;;;;;;16.14;94.51;99932.66;5158205;28;20556;-71
2023/07/03 01:41:38;;;;;;;6.47;3.13;;;;;;;16.07;93.42;99934.84;5174006;28;20132;-72
2023/07/03 01:44:09;;;;;;;10.75;2.92;;;;;;;16.21;92.96;99926.84;5173587;28;20038;-72
2023/07/03 01:46:39;;;;;;;9.20;3.13;;;;;;;16.08;91.16;99918.09;5174644;28;20018;-72
2023/07/03 01:49:14;;;;;;;8.25;3.20;;;;;;;16.15;90.23;99929.91;5174541;28;20082;-70
2023/07/03 01:51:56;;;;;;;9.77;3.00;;;;;;;16.16;87.44;99928.97;5152800;28;20515;-72
2023/07/03 01:54:40;;;;;;;8.50;2.60;;;;;;;16.33;88.24;99923.38;5175297;28;20153;-71
2023/07/03 01:57:16;;;;;;;8.20;3.05;;;;;;;16.39;87.38;99924.78;5175973;28;20197;-71
2023/07/03 01:59:50;;;;;;;7.75;2.75;;;;;;;16.39;87.34;99922.97;5170440;28;20443;-73
2023/07/03 02:02:26;;;;;;;8.10;3.08;;;;;;;16.51;86.50;99916.84;5152649;28;20113;-72
2023/07/03 02:05:07;;;;;;;9.82;3.05;;;;;;;16.63;86.06;99915.13;5173596;28;20040;-72
2023/07/03 02:07:40;;;;;;;7.18;3.28;;;;;;;16.77;85.41;99915.00;5157318;28;20113;-71
2023/07/03 02:10:11;;;;;;;9.27;3.25;;;;;;;16.64;85.76;99922.97;5159734;28;20088;-73
2023/07/03 02:12:45;;;;;;;8.63;3.15;;;;;;;16.61;87.50;99920.53;5158414;28;20029;-72
2023/07/03 02:15:16;;;;;;;7.40;2.85;;;;;;;16.61;86.36;99912.63;5159645;28;20030;-72
2023/07/03 02:17:46;;;;;;;10.07;3.00;;;;;;;16.60;86.24;99915.34;5178057;28;20392;-72
2023/07/03 02:20:17;;;;;;;7.47;3.00;;;;;;;16.62;86.96;99913.44;5176485;28;20404;-73
2023/07/03 02:22:47;;;;;;;8.35;2.95;;;;;;;16.59;86.95;99909.22;5175287;28;20030;-72
2023/07/03 02:25:17;;;;;;;10.18;3.20;;;;;;;16.53;88.62;99914.94;5155601;28;20048;-73
2023/07/03 02:27:50;;;;;;;13.27;3.65;;;;;;;16.68;86.66;99913.88;5173859;28;20496;-69
2023/07/03 02:30:20;;;;;;;9.98;3.03;;;;;;;16.58;85.94;99904.91;5174351;28;20030;-72
2023/07/03 02:32:51;;;;;;;9.27;3.78;;;;;;;16.51;86.29;99906.28;5171841;28;20518;-72
2023/07/03 02:35:21;;;;;;;9.45;3.58;;;;;;;16.57;85.29;99910.31;5160038;28;20034;-72
2023/07/03 02:37:51;;;;;;;10.07;3.63;;;;;;;16.66;84.83;99910.50;5175613;28;20326;-72
2023/07/03 02:40:22;;;;;;;8.93;3.45;;;;;;;16.53;84.56;99909.66;5159849;28;20025;-72
2023/07/03 02:42:52;;;;;;;11.07;3.70;;;;;;;16.49;83.75;99909.97;5156951;28;20033;-72
2023/07/03 02:45:22;;;;;;;12.02;3.20;;;;;;;16.51;84.04;99913.34;5176874;28;20057;-72
2023/07/03 02:47:53;;;;;;;14.98;3.88;;;;;;;16.52;85.32;99910.63;5175710;28;20576;-72
2023/07/03 02:50:23;;;;;;;7.78;2.97;;;;;;;16.62;83.54;99903.75;5158154;28;20041;-72
2023/07/03 02:52:53;;;;;;;7.03;2.95;;;;;;;16.66;83.96;99902.56;5174480;28;20048;-72
2023/07/03 02:55:24;;;;;;;7.85;3.10;;;;;;;16.72;84.18;99898.66;5158904;28;20026;-72
2023/07/03 02:57:55;;;;;;;9.05;3.08;;;;;;;16.51;84.32;99892.25;5158638;28;20080;-72
2023/07/03 03:00:27;;;;;;;11.93;3.30;;;;;;;16.56;84.20;99898.88;5158836;28;20240;-72
2023/07/03 03:02:58;;;;;;;11.07;3.22;;;;;;;16.51;84.72;99893.09;5153900;28;20057;-72
2023/07/03 03:05:28;;;;;;;8.55;3.20;;;;;;;16.49;84.81;99897.66;5174114;28;20061;-73
2023/07/03 03:07:58;;;;;;;9.43;3.45;;;;;;;16.57;84.34;99895.28;5159132;28;20144;-72
2023/07/03 03:10:29;;;;;;;9.20;3.50;;;;;;;16.59;85.09;99897.84;5157745;28;20053;-72
2023/07/03 03:12:59;;;;;;;14.25;3.72;;;;;;;16.52;85.06;99894.78;5174281;28;20030;-72
2023/07/03 03:15:35;;;;;;;12.80;3.65;;;;;;;16.62;84.94;99901.13;5173314;28;20022;-73
2023/07/03 03:18:05;;;;;;;9.10;3.40;;;;;;;16.65;85.18;99892.97;5158370;28;20018;-73
2023/07/03 03:20:36;;;;;;;7.15;3.15;;;;;;;16.68;84.30;99895.41;5173899;28;20537;-71
2023/07/03 03:23:06;;;;;;;15.38;3.83;;;;;;;16.60;84.67;99889.84;5173533;28;20491;-72
2023/07/03 03:25:36;;;;;;;11.25;3.35;;;;;;;16.67;83.97;99891.06;5173088;28;20099;-72
2023/07/03 03:28:08;;;;;;;10.23;2.95;;;;;;;16.78;84.03;99897.25;5175784;28;20044;-73
2023/07/03 03:30:38;;;;;;;15.73;3.58;;;;;;;16.73;84.63;99895.06;5175077;28;20460;-72
2023/07/03 03:33:09;;;;;;;10.48;3.00;;;;;;;16.78;83.56;99893.78;5158340;28;20133;-72
2023/07/03 03:35:39;;;;;;;12.80;4.18;;;;;;;16.73;84.01;99890.63;5176377;28;20170;-72
2023/07/03 03:38:09;;;;;;;9.43;2.72;;;;;;;16.87;84.25;99893.13;5173740;28;20026;-72
2023/07/03 03:40:40;;;;;;;10.63;3.75;;;;;;;16.77;84.00;99903.50;5169407;28;20080;-72
2023/07/03 03:43:10;;;;;;;9.27;3.05;;;;;;;16.84;82.62;99896.81;5157421;28;20029;-73
2023/07/03 03:45:41;;;;;;;10.32;3.53;;;;;;;16.72;83.72;99899.50;5159964;28;20163;-72
2023/07/03 03:48:11;;;;;;;11.35;3.40;;;;;;;16.80;83.60;99897.16;5175457;28;20091;-72
2023/07/03 03:50:41;;;;;;;10.35;3.45;;;;;;;16.82;84.28;99900.53;5174965;28;20037;-72
2023/07/03 03:53:12;;;;;;;12.60;3.40;;;;;;;16.80;81.90;99902.44;5172378;28;20034;-72
2023/07/03 03:55:43;;;;;;;9.93;3.08;;;;;;;16.89;82.39;99902.63;5174355;28;20025;-72
2023/07/03 03:58:15;;;;;;;9.50;3.60;;;;;;;16.99;81.17;99902.81;5154217;28;20046;-70
2023/07/03 04:00:46;;;;;;;12.77;4.22;;;;;;;16.99;81.25;99903.63;5150854;28;20014;-73
2023/07/03 04:03:16;;;;;;;8.00;2.88;;;;;;;17.01;81.17;99901.72;5173034;28;20506;-72
2023/07/03 04:05:47;;;;;;;9.80;3.40;;;;;;;17.18;80.78;99900.50;5168065;28;20108;-73
2023/07/03 04:08:18;;;;;;;9.85;2.90;;;;;;;17.26;79.72;99900.78;5154491;28;20080;-73
2023/07/03 04:10:48;;;;;;;9.45;3.30;;;;;;;17.25;79.70;99899.09;5162234;28;20072;-70
2023/07/03 04:13:18;;;;;;;9.73;2.83;;;;;;;17.33;79.51;99902.84;5176982;28;20523;-73
2023/07/03 04:15:52;;;;;;;11.10;3.17;;;;;;;17.50;79.58;99899.03;5167978;28;20267;-71
2023/07/03 04:18:23;;;;;;;10.80;3.15;;;;;;;17.52;79.66;99899.75;5157278;28;20407;-73
2023/07/03 04:20:54;;;;;;;7.72;2.72;;;;;;;17.59;79.42;99909.75;5152436;28;20110;-70
2023/07/03 04:23:25;;;;;;;10.75;3.28;;;;;;;17.60;80.49;99913.22;5163424;28;20560;-71
2023/07/03 04:25:55;;;;;;;9.38;3.00;;;;;;;17.52;82.39;99916.41;5162515;28;20025;-70
2023/07/03 04:28:26;;;;;;;7.68;3.10;;;;;;;17.31;83.48;99923.25;5163934;28;20515;-70
2023/07/03 04:30:56;;;;;;;8.10;2.78;;;;;;;17.12;83.56;99919.44;5170358;28;20580;-70
2023/07/03 04:33:26;;;;;;;11.55;3.22;;;;;;;17.17;82.38;99919.94;5165627;28;20275;-70
2023/07/03 04:35:57;;;;;;;13.07;3.65;;;;;;;17.06;82.83;99923.38;5167568;28;20034;-70
2023/07/03 04:38:27;;;;;;;10.20;3.00;;;;;;;17.22;82.91;99928.38;5172105;28;20070;-70
2023/07/03 04:40:58;;;;;;;12.55;3.08;;;;;;;17.56;80.20;99932.91;5171567;28;20110;-68
2023/07/03 04:43:29;;;;;;;10.85;3.20;;;;;;;17.50;80.75;99926.25;5172378;28;20029;-71
2023/07/03 04:46:03;;;;;;;11.20;3.10;;;;;;;17.67;80.93;99933.78;5163301;28;20273;-70
2023/07/03 04:48:34;;;;;;;5.65;2.95;;;;;;;17.79;79.70;99927.59;5158042;28;20445;-70
2023/07/03 04:51:08;;;;;;;10.77;3.20;;;;;;;17.49;80.25;99935.16;5176143;28;20060;-70
2023/07/03 04:53:40;;;;;;;11.15;3.58;;;;;;;17.36;80.87;99944.09;5172817;28;20104;-70
2023/07/03 04:56:11;;;;;;;9.88;3.10;;;;;;;17.22;81.66;99945.09;5160143;28;20026;-70
2023/07/03 04:58:41;;;;;;;8.93;2.80;;;;;;;17.21;81.74;99939.91;5171420;28;20377;-70
2023/07/03 05:01:11;;;;;;;11.68;3.22;;;;;;;17.34;81.61;99943.38;5177192;28;20040;-71
2023/07/03 05:03:42;;;;;;;9.43;2.80;;;;;;;17.46;82.07;99945.13;5164135;28;20033;-70
2023/07/03 05:06:12;;;;;;;8.00;2.90;;;;;;;18.34;78.88;99933.03;5162741;28;20398;-70
2023/07/03 05:08:46;;;;;;;9.32;3.35;;;;;;;19.35;74.92;99931.91;5161322;28;20571;-70
2023/07/03 05:11:17;;;;;;;8.60;3.03;;;;;;;19.10;75.23;99931.31;5165690;28;20459;-70
2023/07/03 05:13:48;;;;;;;10.25;3.53;;;;;;;18.96;76.43;99940.34;5169816;28;20116;-72
2023/07/03 05:16:18;;;;;;;8.20;3.10;;;;;;;18.86;75.21;99928.84;5144414;28;20106;-73
2023/07/03 05:18:52;;;;;;;9.88;3.33;;;;;;;18.61;76.98;99930.88;5164624;28;20116;-71
2023/07/03 05:21:23;;;;;;;10.20;3.35;;;;;;;19.19;74.54;99936.75;5164665;28;20499;-73
2023/07/03 05:23:53;;;;;;;10.35;3.20;;;;;;;18.71;77.88;99936.31;5134810;28;20097;-72
2023/07/03 05:26:24;;;;;;;7.68;2.92;;;;;;;18.50;76.86;99940.63;5155373;28;20510;-73
2023/07/03 05:28:54;;;;;;;15.32;2.80;;;;;;;18.42;77.45;99940.38;5160096;28;20018;-73
2023/07/03 05:31:25;;;;;;;9.55;3.10;;;;;;;18.49;78.38;99946.88;5180448;28;20045;-73
2023/07/03 05:33:55;;;;;;;7.82;3.22;;;;;;;18.46;77.81;99933.88;5155746;28;20057;-72
2023/07/03 05:36:25;;;;;;;9.52;3.13;;;;;;;18.84;76.27;99932.56;5165383;28;20026;-72
2023/07/03 05:38:56;;;;;;;12.88;3.25;;;;;;;18.83;77.16;99934.38;5176156;28;20048;-73
2023/07/03 05:41:26;;;;;;;8.88;2.80;;;;;;;19.49;74.75;99928.09;5159722;28;20033;-72
2023/07/03 05:43:57;;;;;;;15.65;3.83;;;;;;;20.45;70.11;99920.72;5159284;28;20029;-72
2023/07/03 05:46:27;;;;;;;7.05;2.60;;;;;;;21.43;68.12;99920.75;5170339;28;20030;-73
2023/07/03 05:48:57;;;;;;;9.82;2.83;;;;;;;22.02;66.06;99918.81;5169068;28;20026;-72
2023/07/03 05:51:28;;;;;;;10.50;2.78;;;;;;;21.69;66.89;99916.59;5153640;28;20023;-72
2023/07/03 05:53:58;;;;;;;8.45;2.60;;;;;;;21.49;67.13;99920.19;5157933;28;20026;-73
2023/07/03 05:56:28;;;;;;;12.98;2.67;;;;;;;21.87;65.77;99922.88;5177523;28;20057;-73
2023/07/03 05:58:59;;;;;;;10.15;2.50;;;;;;;21.23;66.95;99929.69;5175108;28;20076;-73
2023/07/03 06:01:29;;;;;;;9.20;2.35;;;;;;;21.43;67.20;99934.06;5175937;28;20038;-73
2023/07/03 06:03:59;;;;;;;10.95;2.85;;;;;;;21.92;67.03;99932.13;5154131;28;20077;-73
2023/07/03 06:06:30;;;;;;;8.52;2.65;;;;;;;21.86;67.05;99932.72;5174120;28;20400;-73
2023/07/03 06:09:00;;;;;;;7.63;2.60;;;;;;;21.70;65.95;99935.09;5172574;28;20104;-73
2023/07/03 06:11:31;;;;;;;7.75;2.33;;;;;;;22.16;65.19;99932.53;5175758;28;20498;-71
2023/07/03 06:14:01;;;;;;;12.18;3.72;;;;;;;21.60;66.10;99928.06;5171648;28;20060;-70
2023/07/03 06:16:34;;;;;;;12.98;2.60;;;;;;;21.82;67.10;99927.81;5165083;28;20412;-70
2023/07/03 06:19:04;;;;;;;7.82;2.42;;;;;;;21.47;66.51;99932.81;5161178;28;20522;-71
2023/07/03 06:21:35;;;;;;;8.77;2.17;;;;;;;21.89;66.38;99939.59;5161164;28;20026;-71
2023/07/03 06:24:08;;;;;;;12.13;2.90;;;;;;;22.01;67.24;99936.63;5160607;28;20022;-69
2023/07/03 06:26:39;;;;;;;9.13;2.40;;;;;;;22.32;66.25;99939.91;5166742;28;20029;-71
2023/07/03 06:29:12;;;;;;;8.18;2.70;;;;;;;22.50;66.38;99948.88;5168797;28;20408;-70
2023/07/03 06:31:42;;;;;;;8.90;2.63;;;;;;;22.61;64.62;99943.38;5151363;28;20064;-71
2023/07/03 06:34:12;;;;;;;7.50;2.28;;;;;;;22.68;65.75;99940.00;5175953;28;20038;-72
2023/07/03 06:36:43;;;;;;;12.07;2.53;;;;;;;22.78;63.45;99940.78;5170570;28;20030;-72
2023/07/03 06:41:48;;;;;;;7.40;2.20;;;;;;;22.42;64.94;99954.09;5137059;28;20039;-72
2023/07/03 06:44:19;;;;;;;6.13;2.25;;;;;;;22.47;66.30;99954.50;5118885;28;20393;-73
2023/07/03 06:46:50;;;;;;;8.15;2.50;;;;;;;22.77;63.15;99953.28;5145283;28;20030;-72
2023/07/03 06:49:24;;;;;;;13.82;2.55;;;;;;;22.46;63.73;99960.81;5125311;28;20504;-72
2023/07/03 06:51:56;;;;;;;9.80;2.30;;;;;;;22.74;65.22;99958.91;5140746;28;20385;-72
2023/07/03 06:54:26;;;;;;;10.85;2.70;;;;;;;23.41;64.19;99962.09;5140377;28;20115;-73
2023/07/03 06:56:57;;;;;;;9.93;2.75;;;;;;;23.18;62.72;99960.00;5139469;28;20030;-73
2023/07/03 06:59:27;;;;;;;10.05;2.28;;;;;;;22.16;62.92;99969.81;5155854;28;20368;-73
2023/07/03 07:01:57;;;;;;;16.15;2.63;;;;;;;22.00;65.08;99980.19;5162814;28;20026;-72
2023/07/03 07:04:28;;;;;;;7.97;2.15;;;;;;;21.38;66.12;99992.16;5144415;28;20037;-72
2023/07/03 07:06:58;;;;;;;12.10;2.95;;;;;;;21.70;67.17;99992.75;5140916;28;20049;-71
2023/07/03 07:09:28;;;;;;;9.18;2.65;;;;;;;21.13;66.85;99997.94;5138340;28;20030;-72
2023/07/03 07:11:58;;;;;;;10.65;2.35;;;;;;;21.67;67.38;99995.69;5133839;28;20027;-72
2023/07/03 07:14:29;;;;;;;12.05;2.20;;;;;;;21.91;65.79;100001.47;5138739;28;20124;-73
2023/07/03 07:16:59;;;;;;;8.00;2.22;;;;;;;21.81;65.23;99989.97;5157486;28;20030;-73
2023/07/03 07:19:29;;;;;;;12.38;2.65;;;;;;;21.36;66.28;99986.94;5162045;28;20088;-72
2023/07/03 07:22:00;;;;;;;11.90;2.53;;;;;;;21.30;67.00;99995.47;5138686;28;20054;-72
2023/07/03 07:24:30;;;;;;;11.00;2.70;;;;;;;21.07;68.31;99995.81;5154448;28;20106;-72
2023/07/03 07:27:04;;;;;;;12.18;2.42;;;;;;;21.13;67.16;99992.63;5142704;28;20060;-72
2023/07/03 07:29:35;;;;;;;10.57;2.85;;;;;;;20.84;67.28;99991.66;5147411;28;20038;-73
2023/07/03 07:32:06;;;;;;;8.02;2.20;;;;;;;20.66;68.35;99987.91;5138986;28;20026;-71
2023/07/03 07:34:36;;;;;;;8.60;2.17;;;;;;;21.42;66.38;99983.72;5151305;28;20038;-72
2023/07/03 07:37:06;;;;;;;10.82;2.40;;;;;;;22.52;63.98;99984.19;5140976;28;20026;-72
2023/07/03 07:39:40;;;;;;;11.25;1.98;;;;;;;22.56;63.01;99989.09;5139610;28;20487;-72
2023/07/03 07:42:11;;;;;;;7.32;1.90;;;;;;;23.21;62.18;99981.84;5139194;28;20026;-72
2023/07/03 07:44:41;;;;;;;10.35;2.17;;;;;;;21.69;65.95;99986.63;5141855;28;20057;-72
2023/07/03 07:47:12;;;;;;;7.72;1.85;;;;;;;22.65;63.94;99987.41;5139680;28;20088;-72
2023/07/03 07:49:43;;;;;;;7.95;2.60;;;;;;;22.43;63.54;99982.41;5146506;28;20125;-73
2023/07/03 07:52:15;;;;;;;10.75;2.00;;;;;;;23.27;62.50;99981.28;5138600;28;20053;-73
2023/07/03 07:54:45;;;;;;;10.05;2.05;;;;;;;24.25;60.99;99972.25;5148204;28;20034;-73
2023/07/03 07:57:16;;;;;;;9.80;1.88;;;;;;;25.15;59.49;99976.16;5140464;28;20404;-72
2023/07/03 07:59:46;;;;;;;9.85;2.13;;;;;;;25.28;58.45;99968.56;5137259;28;20054;-73
2023/07/03 08:02:17;;;;;;;8.53;2.27;;;;;;;26.63;55.45;99983.97;5155108;28;20041;-73
2023/07/03 08:04:47;;;;;;;10.77;2.10;;;;;;;27.44;53.03;99986.22;5157050;28;20289;-73
2023/07/03 08:07:17;;;;;;;10.43;2.03;;;;;;;27.48;51.92;99978.66;5156964;28;20045;-72
2023/07/03 08:09:48;;;;;;;10.13;2.00;;;;;;;25.63;55.38;99987.88;5155221;28;20109;-72
2023/07/03 08:12:18;;;;;;;6.13;1.98;;;;;;;24.97;56.22;99991.47;5139411;28;20050;-72
2023/07/03 08:14:48;;;;;;;11.82;2.15;;;;;;;23.35;60.21;99997.34;5145277;28;20037;-72
2023/07/03 08:17:19;;;;;;;8.80;2.30;;;;;;;22.66;61.37;100000.59;5138513;28;20045;-72
2023/07/03 08:19:49;;;;;;;8.68;2.55;;;;;;;22.12;61.75;100011.00;5138069;28;20026;-72
2023/07/03 08:22:19;;;;;;;10.18;2.20;;;;;;;21.76;63.31;100009.00;5139280;28;20033;-72
2023/07/03 08:24:50;;;;;;;9.98;1.92;;;;;;;20.95;64.91;100005.72;5141786;28;20482;-72
2023/07/03 08:27:20;;;;;;;13.75;2.33;;;;;;;20.96;65.66;100011.84;5161071;28;20118;-72
2023/07/03 08:29:51;;;;;;;6.60;1.80;;;;;;;20.71;67.18;100002.47;5160627;28;20026;-71
2023/07/03 08:32:21;;;;;;;10.27;2.10;;;;;;;21.18;66.97;100001.03;5142735;28;20035;-72
2023/07/03 08:34:52;;;;;;;6.50;2.00;;;;;;;21.10;66.48;99998.22;5148951;28;20030;-71
2023/07/03 08:37:22;;;;;;;13.18;1.98;;;;;;;21.91;65.42;99996.16;5158557;28;20030;-71
2023/07/03 08:39:52;;;;;;;10.70;2.22;;;;;;;22.19;65.21;99997.94;5141094;28;20050;-71
2023/07/03 08:42:38;;;;;;;11.73;2.10;;;;;;;23.39;62.57;99989.91;5141815;28;20034;-72
2023/07/03 08:45:13;;;;;;;10.07;2.75;;;;;;;24.61;60.13;99984.56;5141915;28;20022;-72
2023/07/03 08:47:48;;;;;;;12.95;2.45;;;;;;;24.71;59.80;99987.97;5137858;28;20049;-72
2023/07/03 08:50:21;;;;;;;10.35;2.10;;;;;;;25.45;57.39;99994.38;5141739;28;20022;-72
2023/07/03 08:53:03;;;;;;;13.50;2.20;;;;;;;25.02;58.19;99987.31;5141564;28;20058;-72
2023/07/03 08:55:42;;;;;;;12.27;2.25;;;;;;;24.42;57.96;99987.38;5142887;28;20026;-72
2023/07/03 08:58:12;;;;;;;5.70;1.88;;;;;;;23.59;59.36;99999.47;5141821;28;20472;-72
2023/07/03 09:01:13;;;;;;;10.57;2.40;;;;;;;22.67;61.83;100001.41;5141951;28;20073;-71
2023/07/03 09:04:05;;;;;;;9.90;2.05;;;;;;;22.18;62.65;100001.59;5157928;28;20121;-72
2023/07/03 09:06:47;;;;;;;11.32;2.42;;;;;;;21.73;64.50;100000.50;5156950;28;20066;-72
2023/07/03 09:09:32;;;;;;;10.55;1.98;;;;;;;21.29;65.90;100006.25;5140688;28;20034;-72
2023/07/03 09:12:17;;;;;;;8.32;2.15;;;;;;;21.02;68.80;100011.31;5156985;28;20575;-71
2023/07/03 09:15:01;;;;;;;10.43;2.08;;;;;;;20.51;69.64;100013.09;5141613;28;20115;-71
2023/07/03 09:17:32;;;;;;;12.57;2.67;;;;;;;20.20;70.33;100016.69;5160839;28;20487;-72
2023/07/03 09:20:05;;;;;;;12.07;2.13;;;;;;;20.02;71.19;100022.69;5142516;28;20038;-72
2023/07/03 09:22:44;;;;;;;13.13;2.47;;;;;;;19.93;73.38;100042.81;5142824;28;20023;-72
2023/07/03 09:25:21;;;;;;;10.52;2.53;;;;;;;19.77;75.03;100054.81;5155185;28;20030;-72
2023/07/03 09:27:54;;;;;;;11.43;2.42;;;;;;;19.24;80.66;100043.22;5139844;28;20377;-71
2023/07/03 09:30:24;;;;;;;10.13;2.03;;;;;;;19.30;80.80;100045.34;5143819;28;20574;-71
2023/07/03 09:32:55;;;;;;;10.48;2.00;;;;;;;19.34;81.70;100043.31;5137532;28;20043;-71
2023/07/03 09:35:36;;;;;;;16.95;3.22;;;;;;;19.27;82.17;100040.31;5136405;28;20035;-71
2023/07/03 09:38:21;;;;;;;14.25;2.78;;;;;;;19.50;80.85;100039.34;5151568;28;20033;-72
2023/07/03 09:40:53;;;;;;;13.90;2.97;;;;;;;19.63;79.74;100037.34;5136185;28;20580;-72
2023/07/03 09:43:27;;;;;;;12.85;2.58;;;;;;;20.16;78.65;100044.44;5137742;28;20027;-71
2023/07/03 09:46:12;;;;;;;12.23;2.45;;;;;;;20.52;77.38;100044.03;5156584;28;20026;-72
2023/07/03 09:48:43;;;;;;;9.82;2.22;;;;;;;21.95;72.78;100040.13;5135275;28;20022;-72
2023/07/03 09:51:19;;;;;;;8.65;1.80;;;;;;;22.39;71.17;100044.94;5139879;28;20269;-72
2023/07/03 09:53:50;;;;;;;8.80;2.05;;;;;;;22.22;71.80;100046.44;5157389;28;20030;-72
2023/07/03 09:56:22;;;;;;;9.27;2.03;;;;;;;21.72;72.09;100044.88;5140793;28;20064;-71
2023/07/03 09:58:58;;;;;;;12.88;2.40;;;;;;;21.44;73.04;100044.78;5157432;28;20030;-72
2023/07/03 10:01:29;;;;;;;;;;;;;;;21.48;71.58;100040.84;5141405;28;20023;-72
2023/07/03 10:04:03;;;;;;;8.65;1.80;;;;;;;21.16;73.54;100053.47;5139838;28;19921;-72
2023/07/03 10:06:35;;;;;;;9.57;1.95;;;;;;;20.39;75.62;100048.69;5141151;28;20732;-72
2023/07/03 10:09:19;;;;;;;10.75;2.88;;;;;;;20.28;75.70;100048.72;5139620;28;20396;-71
2023/07/03 10:12:27;;;;;;;20.30;2.80;;;;;;;20.95;74.58;100052.69;5152848;28;20029;-71
2023/07/03 10:15:10;;;;;;;10.65;2.35;;;;;;;22.58;70.29;100050.25;5153330;28;20077;-72
2023/07/03 10:17:47;;;;;;;15.63;2.60;;;;;;;22.76;67.98;100042.22;5140408;28;20018;-72
2023/07/03 10:20:32;;;;;;;11.82;2.50;;;;;;;22.92;66.70;100039.78;5139772;28;20026;-72
2023/07/03 10:23:04;;;;;;;10.63;2.22;;;;;;;23.17;65.94;100033.81;5145593;28;20700;-72
2023/07/03 10:25:39;;;;;;;12.32;2.78;;;;;;;22.91;66.33;100042.56;5139714;28;20045;-72
2023/07/03 10:28:17;;;;;;;9.05;2.30;;;;;;;22.38;68.85;100033.44;5137915;28;20049;-72
2023/07/03 10:30:53;;;;;;;11.98;2.50;;;;;;;22.31;67.50;100042.97;5136371;28;20039;-70
2023/07/03 10:33:36;;;;;;;8.20;2.47;;;;;;;22.62;66.46;100028.47;5138982;28;20044;-72
2023/07/03 10:36:10;;;;;;;9.48;2.05;;;;;;;23.07;66.85;100025.00;5137358;28;20092;-72
2023/07/03 10:38:56;;;;;;;13.93;2.53;;;;;;;23.43;68.96;100017.97;5142750;28;20088;-72
2023/07/03 10:41:56;;;;;;;13.48;2.22;;;;;;;24.00;67.92;100021.09;5157266;28;20113;-72
2023/07/03 10:44:30;;;;;;;12.82;2.30;;;;;;;23.71;62.08;100023.09;5141128;28;20038;-72
2023/07/03 10:47:22;;;;;;;8.07;1.63;;;;;;;23.32;62.00;100027.00;5142675;28;20488;-71
2023/07/03 10:49:53;;;;;;;9.27;1.52;;;;;;;22.76;60.29;100031.53;5154411;28;20076;-71
2023/07/03 10:52:30;;;;;;;9.95;2.20;;;;;;;22.40;62.78;100046.63;5163090;28;20109;-72
2023/07/03 10:55:30;;;;;;;12.25;2.17;;;;;;;21.89;61.91;100051.34;5160771;28;20034;-72
2023/07/03 10:58:30;;;;;;;6.28;1.60;;;;;;;21.42;61.94;100052.03;5156607;28;20034;-72
2023/07/03 11:01:16;;;;;;;7.03;1.80;;;;;;;21.15;61.32;100057.97;5157465;28;20409;-71
2023/07/03 11:04:10;;;;;;;8.18;1.65;;;;;;;20.92;61.42;100068.91;5149822;28;20038;-72
2023/07/03 11:07:13;;;;;;;6.72;1.63;;;;;;;21.13;63.60;100073.22;5159473;28;20461;-72
2023/07/03 11:10:07;;;;;;;6.80;1.65;;;;;;;21.19;63.29;100069.16;5156655;28;20069;-71
2023/07/03 11:12:44;;;;;;;6.75;1.77;;;;;;;21.12;62.66;100076.84;5128919;28;20062;-72
2023/07/03 11:15:27;;;;;;;7.15;1.88;;;;;;;20.92;62.22;100075.03;5155661;28;20038;-72
2023/07/03 11:18:28;;;;;;;7.13;2.08;;;;;;;21.05;62.13;100078.34;5155866;28;20033;-72
2023/07/03 11:21:16;;;;;;;8.48;2.40;;;;;;;20.92;63.13;100074.22;5139292;28;20504;-72
2023/07/03 11:23:58;;;;;;;8.52;2.00;;;;;;;20.68;62.67;100081.56;5138938;28;20539;-71
2023/07/03 11:26:38;;;;;;;9.48;1.80;;;;;;;20.73;62.77;100082.88;5143370;28;20381;-72
2023/07/03 11:29:11;;;;;;;6.22;1.50;;;;;;;20.99;62.23;100086.84;5140101;28;20085;-71
2023/07/03 11:31:45;;;;;;;7.95;1.70;;;;;;;21.29;62.60;100075.38;5135182;28;20026;-72
2023/07/03 11:34:17;;;;;;;7.50;2.10;;;;;;;21.25;62.54;100087.25;5142966;28;20547;-71
2023/07/03 11:36:54;;;;;;;7.95;2.08;;;;;;;21.71;63.70;100075.13;5159339;28;20034;-72
2023/07/03 11:39:33;;;;;;;7.05;1.70;;;;;;;22.08;64.45;100067.34;5140712;28;20120;-72
2023/07/03 11:42:05;;;;;;;8.60;1.90;;;;;;;21.97;61.54;100086.09;5138894;28;20026;-72
2023/07/03 11:44:46;;;;;;;8.48;1.73;;;;;;;21.52;61.54;100080.34;5158777;28;20026;-72
2023/07/03 11:47:25;;;;;;;9.05;1.73;;;;;;;21.45;62.51;100073.91;5136594;28;20030;-72
2023/07/03 11:50:05;;;;;;;5.88;1.83;;;;;;;21.44;64.22;100082.00;5138163;28;20036;-72
2023/07/03 11:52:40;;;;;;;9.30;1.90;;;;;;;21.48;62.79;100086.06;5139792;28;20488;-72
2023/07/03 11:55:16;;;;;;;10.50;2.85;;;;;;;21.88;63.12;100078.94;5135833;28;20030;-72
2023/07/03 11:57:54;;;;;;;8.43;1.90;;;;;;;21.84;62.37;100080.19;5143763;28;20046;-71
2023/07/03 12:00:29;;;;;;;6.72;1.70;;;;;;;22.11;61.99;100077.69;5143587;28;20025;-72